createdAt,value
2018-12-17T00:01:43.688Z,2.10
2018-12-17T00:04:12.718Z,2.30
2018-12-17T00:06:41.705Z,2.10
2018-12-17T00:09:11.028Z,2.00
2018-12-17T00:11:40.130Z,1.90
2018-12-17T00:14:09.092Z,2.00
2018-12-17T00:16:38.123Z,2.00
2018-12-17T00:19:07.088Z,2.00
2018-12-17T00:21:36.146Z,2.00
2018-12-17T00:24:05.203Z,2.20
2018-12-17T00:26:34.181Z,2.30
2018-12-17T00:29:03.173Z,2.20
2018-12-17T00:31:32.110Z,2.30
2018-12-17T00:34:01.066Z,2.10
2018-12-17T00:36:30.009Z,2.10
2018-12-17T00:38:59.077Z,1.80
2018-12-17T00:41:28.066Z,1.90
2018-12-17T00:43:57.074Z,2.10
2018-12-17T00:46:26.040Z,2.10
2018-12-17T00:48:55.082Z,2.10
2018-12-17T00:51:24.223Z,2.00
2018-12-17T00:53:53.182Z,2.10
2018-12-17T00:56:22.100Z,2.10
2018-12-17T00:58:51.025Z,2.00
2018-12-17T01:01:19.965Z,2.00
2018-12-17T01:03:48.898Z,2.20
2018-12-17T01:06:17.824Z,2.20
2018-12-17T01:08:46.738Z,2.10
2018-12-17T01:11:15.686Z,2.10
2018-12-17T01:13:44.614Z,2.30
2018-12-17T01:16:13.555Z,2.20
2018-12-17T01:18:42.620Z,1.90
2018-12-17T01:21:11.574Z,1.60
2018-12-17T01:23:40.897Z,1.60
2018-12-17T01:26:09.970Z,1.90
2018-12-17T01:28:39.184Z,2.30
2018-12-17T01:31:08.142Z,2.40
2018-12-17T01:33:37.505Z,2.40
2018-12-17T01:36:06.452Z,2.50
2018-12-17T01:38:35.389Z,2.40
2018-12-17T01:41:04.387Z,2.40
2018-12-17T01:43:33.316Z,2.30
2018-12-17T01:46:02.234Z,2.10
2018-12-17T01:48:31.276Z,2.00
2018-12-17T01:51:00.200Z,1.80
2018-12-17T01:53:29.167Z,1.70
2018-12-17T01:55:58.177Z,1.60
2018-12-17T01:58:29.339Z,1.70
2018-12-17T02:00:58.182Z,1.70
2018-12-17T02:03:27.140Z,1.80
2018-12-17T02:05:56.062Z,1.70
2018-12-17T02:08:25.008Z,1.70
2018-12-17T02:10:54.019Z,1.70
2018-12-17T02:13:22.994Z,1.70
2018-12-17T02:15:52.033Z,1.70
2018-12-17T02:18:20.994Z,1.80
2018-12-17T02:20:49.915Z,1.80
2018-12-17T02:23:18.880Z,1.90
2018-12-17T02:25:47.796Z,1.80
2018-12-17T02:28:16.748Z,1.80
2018-12-17T02:30:45.657Z,1.70
2018-12-17T02:33:14.656Z,1.70
2018-12-17T02:35:43.595Z,1.70
2018-12-17T02:38:12.809Z,1.70
2018-12-17T02:40:41.740Z,1.90
2018-12-17T02:43:10.693Z,2.00
2018-12-17T02:45:39.622Z,2.00
2018-12-17T02:48:08.626Z,2.00
2018-12-17T02:50:37.553Z,2.10
2018-12-17T02:53:06.508Z,2.00
2018-12-17T02:55:35.470Z,2.10
2018-12-17T02:58:04.428Z,2.20
2018-12-17T03:00:33.341Z,2.20
2018-12-17T03:03:02.284Z,2.30
2018-12-17T03:05:31.208Z,2.20
2018-12-17T03:08:00.158Z,2.30
2018-12-17T03:10:29.092Z,2.30
2018-12-17T03:12:58.042Z,2.20
2018-12-17T03:15:26.975Z,2.20
2018-12-17T03:17:55.933Z,2.20
2018-12-17T03:20:24.875Z,2.30
2018-12-17T03:22:53.806Z,2.30
2018-12-17T03:25:22.730Z,2.30
2018-12-17T03:27:51.694Z,2.10
2018-12-17T03:30:20.654Z,2.00
2018-12-17T03:32:49.598Z,2.20
2018-12-17T03:35:18.624Z,2.20
2018-12-17T03:37:47.579Z,2.20
2018-12-17T03:40:16.509Z,2.40
2018-12-17T03:42:45.450Z,2.50
2018-12-17T03:45:14.368Z,2.40
2018-12-17T03:47:43.301Z,2.40
2018-12-17T03:50:12.229Z,2.50
2018-12-17T03:52:41.146Z,2.30
2018-12-17T03:55:10.100Z,2.20
2018-12-17T03:57:39.019Z,2.50
2018-12-17T04:00:07.998Z,2.50
2018-12-17T04:02:36.927Z,2.40
2018-12-17T04:05:06.167Z,2.40
2018-12-17T04:07:35.083Z,2.40
2018-12-17T04:10:04.446Z,2.40
2018-12-17T04:12:33.385Z,2.30
2018-12-17T04:15:02.445Z,1.90
2018-12-17T04:17:31.367Z,2.10
2018-12-17T04:20:00.311Z,2.40
2018-12-17T04:22:29.311Z,2.80
2018-12-17T04:24:58.265Z,2.70
2018-12-17T04:27:27.227Z,2.40
2018-12-17T04:29:56.174Z,2.20
2018-12-17T04:32:25.213Z,2.30
2018-12-17T04:34:54.161Z,2.10
2018-12-17T04:37:23.449Z,2.20
2018-12-17T04:39:52.368Z,2.00
2018-12-17T04:42:21.327Z,2.10
2018-12-17T04:44:51.102Z,2.20
2018-12-17T04:47:20.065Z,2.20
2018-12-17T04:49:49.023Z,2.60
2018-12-17T04:52:17.951Z,2.50
2018-12-17T04:54:46.913Z,2.60
2018-12-17T04:57:15.844Z,2.70
2018-12-17T04:59:44.787Z,2.70
2018-12-17T05:02:13.708Z,3.00
2018-12-17T05:04:42.738Z,2.90
2018-12-17T05:07:11.660Z,2.80
2018-12-17T05:09:40.609Z,2.80
2018-12-17T05:12:09.559Z,2.80
2018-12-17T05:14:38.515Z,2.90
2018-12-17T05:17:07.578Z,2.90
2018-12-17T05:19:36.530Z,2.90
2018-12-17T05:22:05.467Z,2.70
2018-12-17T05:24:34.535Z,2.50
2018-12-17T05:27:03.630Z,2.80
2018-12-17T05:29:32.549Z,2.90
2018-12-17T05:32:01.489Z,3.00
2018-12-17T05:34:30.453Z,3.00
2018-12-17T05:36:59.377Z,3.00
2018-12-17T05:39:28.332Z,3.10
2018-12-17T05:41:57.296Z,3.00
2018-12-17T05:44:26.294Z,2.90
2018-12-17T05:46:55.247Z,2.80
2018-12-17T05:49:24.174Z,2.70
2018-12-17T05:51:53.131Z,2.70
2018-12-17T05:54:22.071Z,2.70
2018-12-17T05:56:51.001Z,2.70
2018-12-17T05:59:19.923Z,2.70
2018-12-17T06:01:48.869Z,2.70
2018-12-17T06:04:17.793Z,2.60
2018-12-17T06:06:46.766Z,2.60
2018-12-17T06:09:15.978Z,2.40
2018-12-17T06:11:45.064Z,2.30
2018-12-17T06:14:14.120Z,2.40
2018-12-17T06:16:43.058Z,2.40
2018-12-17T06:19:11.983Z,2.40
2018-12-17T06:21:40.938Z,2.40
2018-12-17T06:24:09.857Z,2.40
2018-12-17T06:26:38.794Z,2.30
2018-12-17T06:29:07.822Z,2.30
2018-12-17T06:31:37.249Z,2.20
2018-12-17T06:34:06.193Z,2.20
2018-12-17T06:36:35.146Z,2.20
2018-12-17T06:39:06.130Z,2.20
2018-12-17T06:41:35.092Z,2.20
2018-12-17T06:44:04.014Z,2.20
2018-12-17T06:46:32.963Z,2.30
2018-12-17T06:49:01.897Z,2.30
2018-12-17T06:51:30.947Z,2.40
2018-12-17T06:53:59.868Z,2.40
2018-12-17T06:56:29.781Z,2.60
2018-12-17T06:58:58.703Z,2.60
2018-12-17T07:01:28.197Z,2.60
2018-12-17T07:03:57.235Z,2.80
2018-12-17T07:06:26.168Z,2.60
2018-12-17T07:08:55.099Z,2.70
2018-12-17T07:11:24.033Z,2.80
2018-12-17T07:13:52.961Z,2.80
2018-12-17T07:16:21.930Z,2.90
2018-12-17T07:18:50.846Z,2.80
2018-12-17T07:21:19.800Z,2.70
2018-12-17T07:23:48.735Z,2.70
2018-12-17T07:26:17.821Z,2.70
2018-12-17T07:28:46.794Z,2.60
2018-12-17T07:31:15.773Z,3.00
2018-12-17T07:33:44.733Z,2.90
2018-12-17T07:36:13.670Z,3.00
2018-12-17T07:38:42.636Z,2.70
2018-12-17T07:41:11.709Z,2.80
2018-12-17T07:43:41.009Z,2.80
2018-12-17T07:46:09.921Z,2.90
2018-12-17T07:48:38.907Z,3.00
2018-12-17T07:51:07.873Z,3.00
2018-12-17T07:53:36.842Z,3.20
2018-12-17T07:56:05.817Z,3.20
2018-12-17T07:58:34.773Z,3.00
2018-12-17T08:01:03.695Z,3.00
2018-12-17T08:03:32.656Z,3.00
2018-12-17T08:06:01.644Z,3.40
2018-12-17T08:08:35.375Z,3.50
2018-12-17T08:11:01.524Z,3.60
2018-12-17T08:13:30.729Z,3.80
2018-12-17T08:15:59.723Z,3.80
2018-12-17T08:18:28.683Z,3.80
2018-12-17T08:20:57.654Z,3.90
2018-12-17T08:23:26.674Z,3.80
2018-12-17T08:25:55.674Z,4.00
2018-12-17T08:28:24.700Z,4.00
2018-12-17T08:30:53.643Z,3.90
2018-12-17T08:33:22.632Z,3.90
2018-12-17T08:35:51.692Z,3.90
2018-12-17T08:38:20.650Z,3.90
2018-12-17T08:40:49.649Z,4.00
2018-12-17T08:43:18.592Z,3.90
2018-12-17T08:45:47.509Z,4.00
2018-12-17T08:48:16.455Z,4.20
2018-12-17T08:50:45.445Z,4.10
2018-12-17T08:53:14.416Z,4.10
2018-12-17T08:55:43.339Z,4.20
2018-12-17T08:58:12.395Z,4.30
2018-12-17T09:00:41.317Z,4.40
2018-12-17T09:03:10.278Z,4.40
2018-12-17T09:05:39.239Z,4.50
2018-12-17T09:08:08.718Z,4.50
2018-12-17T09:10:37.965Z,4.40
2018-12-17T09:13:07.100Z,4.50
2018-12-17T09:15:36.078Z,4.10
2018-12-17T09:18:05.030Z,4.10
2018-12-17T09:20:33.997Z,4.00
2018-12-17T09:23:02.954Z,3.90
2018-12-17T09:25:31.934Z,4.20
2018-12-17T09:28:00.871Z,4.10
2018-12-17T09:30:29.890Z,4.40
2018-12-17T09:32:58.809Z,4.50
2018-12-17T09:35:27.808Z,4.60
2018-12-17T09:37:56.738Z,4.50
2018-12-17T09:40:25.750Z,4.50
2018-12-17T09:42:55.201Z,4.40
2018-12-17T09:45:24.161Z,4.30
2018-12-17T09:47:53.100Z,4.40
2018-12-17T09:50:22.055Z,4.20
2018-12-17T09:52:51.036Z,4.10
2018-12-17T09:55:20.658Z,4.20
2018-12-17T09:57:56.149Z,4.20
2018-12-17T10:00:25.582Z,4.30
2018-12-17T10:02:54.746Z,4.30
2018-12-17T10:05:23.883Z,4.30
2018-12-17T10:07:54.133Z,4.40
2018-12-17T10:10:24.236Z,4.40
2018-12-17T10:12:54.937Z,4.30
2018-12-17T10:15:24.835Z,4.40
2018-12-17T10:17:53.737Z,4.30
2018-12-17T10:20:23.357Z,4.20
2018-12-17T10:22:52.804Z,4.20
2018-12-17T10:25:22.549Z,4.20
2018-12-17T10:27:52.520Z,4.20
2018-12-17T10:30:22.614Z,4.20
2018-12-17T10:32:52.060Z,4.30
2018-12-17T10:35:22.379Z,4.30
2018-12-17T10:37:52.591Z,4.50
2018-12-17T10:40:22.150Z,4.60
2018-12-17T10:42:51.113Z,4.60
2018-12-17T10:45:20.480Z,4.60
2018-12-17T10:47:49.427Z,4.50
2018-12-17T10:50:18.378Z,4.50
2018-12-17T10:52:47.302Z,4.50
2018-12-17T10:55:16.277Z,4.60
2018-12-17T10:57:45.207Z,4.60
2018-12-17T11:00:19.639Z,4.50
2018-12-17T11:02:49.062Z,4.60
2018-12-17T11:05:26.854Z,4.80
2018-12-17T11:07:55.790Z,5.10
2018-12-17T11:10:24.754Z,5.00
2018-12-17T11:12:53.773Z,5.00
2018-12-17T11:15:22.748Z,5.00
2018-12-17T11:17:51.707Z,5.20
2018-12-17T11:20:20.640Z,5.00
2018-12-17T11:22:49.594Z,5.10
2018-12-17T11:25:18.531Z,5.50
2018-12-17T11:27:47.470Z,5.60
2018-12-17T11:30:17.482Z,5.90
2018-12-17T11:32:47.102Z,6.10
2018-12-17T11:35:16.117Z,6.00
2018-12-17T11:37:45.184Z,5.90
2018-12-17T11:40:14.342Z,5.70
2018-12-17T11:42:43.558Z,5.80
2018-12-17T11:45:12.518Z,5.70
2018-12-17T11:47:41.472Z,5.80
2018-12-17T11:50:10.421Z,5.60
2018-12-17T11:52:39.371Z,5.50
2018-12-17T11:55:08.298Z,5.40
2018-12-17T11:58:17.317Z,5.50
2018-12-17T12:01:03.228Z,5.50
2018-12-17T12:03:34.304Z,5.50
2018-12-17T12:06:03.249Z,5.50
2018-12-17T12:08:32.346Z,5.50
2018-12-17T12:11:01.248Z,5.50
2018-12-17T12:13:30.193Z,5.30
2018-12-17T12:15:59.128Z,5.30
2018-12-17T12:18:28.092Z,5.30
2018-12-17T12:20:57.027Z,5.20
2018-12-17T12:23:25.973Z,5.20
2018-12-17T12:25:54.889Z,5.10
2018-12-17T12:28:23.852Z,5.00
2018-12-17T12:30:52.777Z,5.10
2018-12-17T12:33:21.717Z,5.00
2018-12-17T12:35:50.648Z,4.90
2018-12-17T12:38:19.591Z,5.00
2018-12-17T12:40:48.520Z,5.00
2018-12-17T12:43:17.481Z,5.00
2018-12-17T12:45:46.506Z,5.00
2018-12-17T12:48:15.448Z,4.90
2018-12-17T12:50:44.490Z,4.90
2018-12-17T12:53:13.453Z,5.00
2018-12-17T12:55:42.344Z,5.20
2018-12-17T12:58:11.293Z,5.10
2018-12-17T13:00:40.218Z,5.10
2018-12-17T13:03:09.667Z,5.20
2018-12-17T13:05:38.659Z,5.20
2018-12-17T13:08:07.739Z,5.10
2018-12-17T13:10:37.147Z,5.20
2018-12-17T13:13:06.114Z,5.20
2018-12-17T13:15:35.039Z,5.20
2018-12-17T13:18:04.111Z,5.20
2018-12-17T13:20:33.165Z,5.20
2018-12-17T13:23:02.783Z,5.20
2018-12-17T13:25:39.793Z,5.20
2018-12-17T13:28:08.893Z,5.00
2018-12-17T13:30:39.019Z,4.90
2018-12-17T13:33:08.901Z,5.00
2018-12-17T13:35:37.872Z,5.00
2018-12-17T13:38:06.899Z,4.90
2018-12-17T13:40:35.943Z,5.00
2018-12-17T13:43:04.940Z,5.10
2018-12-17T13:45:33.881Z,4.90
2018-12-17T13:48:02.813Z,4.80
2018-12-17T13:50:35.997Z,4.90
2018-12-17T13:53:10.816Z,4.90
2018-12-17T13:55:39.831Z,4.80
2018-12-17T13:58:09.236Z,4.70
2018-12-17T14:00:38.248Z,4.80
2018-12-17T14:03:07.226Z,4.90
2018-12-17T14:05:36.200Z,4.90
2018-12-17T14:08:05.123Z,4.90
2018-12-17T14:10:39.480Z,5.00
2018-12-17T14:13:08.446Z,5.00
2018-12-17T14:15:42.743Z,4.90
2018-12-17T14:19:14.981Z,4.80
2018-12-17T14:21:49.249Z,5.00
2018-12-17T14:24:18.244Z,5.00
2018-12-17T14:26:47.215Z,5.00
2018-12-17T14:29:16.207Z,5.00
2018-12-17T14:31:45.689Z,5.10
2018-12-17T14:34:14.817Z,5.20
2018-12-17T14:36:43.872Z,5.30
2018-12-17T14:39:12.895Z,5.20
2018-12-17T14:41:41.884Z,5.10
2018-12-17T14:44:16.180Z,5.20
2018-12-17T14:46:50.646Z,5.30
2018-12-17T14:49:19.594Z,5.20
2018-12-17T14:51:48.540Z,5.10
2018-12-17T14:54:17.476Z,5.10
2018-12-17T14:56:49.425Z,5.20
2018-12-17T14:59:18.462Z,5.10
2018-12-17T15:01:47.414Z,5.20
2018-12-17T15:04:16.385Z,5.30
2018-12-17T15:06:46.080Z,5.30
2018-12-17T15:09:15.507Z,5.30
2018-12-17T15:11:45.651Z,5.30
2018-12-17T15:14:14.573Z,5.30
2018-12-17T15:16:43.555Z,5.20
2018-12-17T15:19:13.878Z,5.10
2018-12-17T15:21:43.032Z,5.10
2018-12-17T15:24:11.947Z,5.00
2018-12-17T15:26:40.885Z,5.00
2018-12-17T15:29:09.876Z,5.00
2018-12-17T15:31:43.055Z,4.90
2018-12-17T15:34:09.733Z,4.80
2018-12-17T15:36:40.622Z,4.70
2018-12-17T15:39:09.809Z,4.70
2018-12-17T15:41:38.766Z,4.60
2018-12-17T15:44:07.695Z,4.40
2018-12-17T15:46:36.672Z,4.50
2018-12-17T15:49:05.707Z,4.80
2018-12-17T15:51:36.343Z,5.00
2018-12-17T15:54:05.508Z,5.10
2018-12-17T15:56:34.522Z,5.10
2018-12-17T15:59:03.542Z,5.10
2018-12-17T16:01:32.596Z,5.10
2018-12-17T16:04:01.588Z,5.20
2018-12-17T16:06:30.666Z,5.10
2018-12-17T16:08:59.774Z,5.20
2018-12-17T16:11:28.741Z,5.30
2018-12-17T16:13:57.654Z,5.40
2018-12-17T16:16:26.708Z,5.50
2018-12-17T16:18:55.631Z,5.50
2018-12-17T16:21:24.651Z,5.30
2018-12-17T16:23:53.567Z,5.40
2018-12-17T16:26:22.510Z,5.50
2018-12-17T16:28:51.437Z,5.40
2018-12-17T16:31:20.369Z,5.60
2018-12-17T16:33:49.311Z,5.60
2018-12-17T16:36:18.320Z,5.50
2018-12-17T16:38:47.298Z,5.60
2018-12-17T16:41:16.255Z,5.60
2018-12-17T16:43:45.270Z,5.50
2018-12-17T16:46:14.221Z,5.70
2018-12-17T16:48:43.170Z,5.60
2018-12-17T16:51:12.207Z,5.60
2018-12-17T16:53:43.918Z,5.50
2018-12-17T16:56:12.874Z,5.60
2018-12-17T16:58:41.910Z,5.60
2018-12-17T17:01:10.853Z,5.50
2018-12-17T17:03:39.790Z,5.60
2018-12-17T17:06:08.714Z,5.50
2018-12-17T17:08:38.722Z,5.60
2018-12-17T17:11:07.693Z,5.30
2018-12-17T17:13:36.647Z,5.30
2018-12-17T17:16:05.643Z,5.50
2018-12-17T17:18:34.699Z,5.50
2018-12-17T17:21:03.616Z,5.30
2018-12-17T17:23:32.589Z,5.50
2018-12-17T17:26:07.662Z,5.50
2018-12-17T17:28:40.187Z,5.50
2018-12-17T17:31:09.320Z,5.50
2018-12-17T17:33:38.497Z,5.50
2018-12-17T17:36:07.460Z,5.40
2018-12-17T17:38:36.427Z,5.40
2018-12-17T17:41:05.366Z,5.40
2018-12-17T17:43:34.293Z,5.40
2018-12-17T17:46:03.209Z,5.20
2018-12-17T17:48:32.168Z,5.50
2018-12-17T17:51:01.112Z,5.50
2018-12-17T17:53:30.060Z,5.50
2018-12-17T17:55:58.994Z,5.50
2018-12-17T17:58:28.051Z,5.60
2018-12-17T18:00:56.974Z,5.70
2018-12-17T18:03:25.928Z,5.70
2018-12-17T18:05:54.854Z,5.50
2018-12-17T18:08:23.807Z,5.30
2018-12-17T18:10:52.725Z,5.20
2018-12-17T18:13:22.082Z,5.40
2018-12-17T18:15:50.997Z,5.30
2018-12-17T18:18:19.962Z,5.30
2018-12-17T18:20:48.884Z,5.50
2018-12-17T18:23:18.652Z,5.40
2018-12-17T18:25:47.604Z,5.40
2018-12-17T18:28:16.532Z,5.60
2018-12-17T18:30:45.500Z,5.70
2018-12-17T18:33:15.855Z,5.40
2018-12-17T18:35:45.217Z,5.50
2018-12-17T18:38:14.136Z,5.50
2018-12-17T18:40:43.116Z,5.50
2018-12-17T18:43:12.062Z,5.50
2018-12-17T18:45:42.321Z,5.40
2018-12-17T18:48:11.746Z,5.60
2018-12-17T18:50:41.000Z,5.40
2018-12-17T18:53:10.223Z,5.50
2018-12-17T18:55:39.472Z,5.50
2018-12-17T18:58:08.708Z,5.50
2018-12-17T19:00:38.395Z,5.50
2018-12-17T19:03:07.547Z,5.50
2018-12-17T19:05:37.281Z,5.40
2018-12-17T19:08:06.526Z,5.50
2018-12-17T19:10:41.030Z,5.50
2018-12-17T19:13:10.189Z,5.60
2018-12-17T19:15:39.367Z,5.50
2018-12-17T19:18:08.484Z,5.70
2018-12-17T19:20:37.984Z,5.70
2018-12-17T19:23:07.475Z,5.70
2018-12-17T19:25:36.623Z,5.60
2018-12-17T19:28:05.768Z,5.80
2018-12-17T19:30:34.935Z,5.70
2018-12-17T19:33:04.083Z,5.60
2018-12-17T19:35:33.248Z,5.60
2018-12-17T19:38:02.433Z,5.60
2018-12-17T19:40:31.631Z,5.60
2018-12-17T19:43:00.788Z,5.50
2018-12-17T19:45:29.992Z,5.50
2018-12-17T19:47:59.155Z,5.50
2018-12-17T19:50:28.336Z,5.40
2018-12-17T19:52:57.478Z,5.30
2018-12-17T19:55:26.728Z,5.20
2018-12-17T19:57:56.826Z,5.40
2018-12-17T20:00:26.230Z,5.40
2018-12-17T20:02:55.362Z,5.40
2018-12-17T20:05:24.532Z,5.50
2018-12-17T20:07:53.690Z,5.50
2018-12-17T20:10:26.499Z,5.60
2018-12-17T20:12:55.747Z,5.60
2018-12-17T20:15:25.299Z,5.50
2018-12-17T20:17:54.865Z,5.40
2018-12-17T20:20:24.040Z,5.30
2018-12-17T20:22:53.461Z,5.50
2018-12-17T20:25:24.523Z,5.50
2018-12-17T20:27:53.711Z,5.40
2018-12-17T20:30:23.676Z,5.40
2018-12-17T20:32:53.693Z,5.40
2018-12-17T20:35:23.147Z,5.10
2018-12-17T20:37:52.373Z,5.00
2018-12-17T20:40:21.535Z,5.30
2018-12-17T20:42:50.749Z,5.50
2018-12-17T20:45:19.940Z,5.50
2018-12-17T20:47:49.100Z,5.60
2018-12-17T20:50:18.245Z,5.60
2018-12-17T20:52:47.408Z,5.70
2018-12-17T20:55:16.556Z,5.50
2018-12-17T20:57:45.785Z,5.60
2018-12-17T21:00:14.935Z,5.50
2018-12-17T21:02:44.564Z,5.60
2018-12-17T21:05:13.720Z,5.60
2018-12-17T21:07:42.950Z,5.60
2018-12-17T21:10:12.092Z,5.80
2018-12-17T21:12:41.239Z,6.00
2018-12-17T21:15:10.373Z,5.70
2018-12-17T21:17:39.532Z,5.80
2018-12-17T21:20:08.677Z,6.00
2018-12-17T21:22:37.827Z,6.00
2018-12-17T21:25:06.965Z,6.00
2018-12-17T21:27:36.125Z,5.80
2018-12-17T21:30:05.644Z,5.80
2018-12-17T21:32:34.821Z,5.80
2018-12-17T21:35:03.970Z,5.70
2018-12-17T21:37:33.201Z,5.80
2018-12-17T21:40:02.333Z,5.90
2018-12-17T21:42:31.498Z,5.90
2018-12-17T21:45:00.632Z,5.80
2018-12-17T21:47:29.946Z,5.80
2018-12-17T21:49:59.212Z,5.70
2018-12-17T21:52:28.544Z,5.70
2018-12-17T21:54:57.820Z,5.50
2018-12-17T21:57:27.254Z,5.60
2018-12-17T21:59:56.508Z,5.70
2018-12-17T22:02:25.715Z,5.90
2018-12-17T22:04:54.871Z,5.90
2018-12-17T22:07:24.026Z,5.90
2018-12-17T22:09:53.166Z,5.80
2018-12-17T22:12:22.330Z,5.80
2018-12-17T22:14:51.517Z,5.70
2018-12-17T22:17:21.506Z,5.80
2018-12-17T22:19:50.640Z,5.80
2018-12-17T22:22:19.811Z,5.80
2018-12-17T22:24:48.941Z,5.60
2018-12-17T22:27:18.083Z,5.50
2018-12-17T22:29:47.297Z,5.40
2018-12-17T22:32:16.240Z,5.40
2018-12-17T22:34:45.152Z,5.50
2018-12-17T22:37:14.061Z,5.50
2018-12-17T22:39:43.045Z,5.40
2018-12-17T22:42:11.990Z,5.40
2018-12-17T22:44:40.925Z,5.50
2018-12-17T22:47:09.853Z,5.80
2018-12-17T22:49:39.381Z,5.80
2018-12-17T22:52:08.392Z,5.50
2018-12-17T22:54:37.354Z,5.50
2018-12-17T22:57:06.281Z,5.30
2018-12-17T22:59:35.236Z,5.30
2018-12-17T23:02:04.171Z,5.50
2018-12-17T23:04:33.117Z,5.40
2018-12-17T23:07:02.085Z,5.60
2018-12-17T23:09:42.506Z,5.40
2018-12-17T23:12:22.855Z,5.30
2018-12-17T23:15:03.212Z,5.10
2018-12-17T23:17:39.315Z,5.00
2018-12-17T23:20:09.420Z,5.30
2018-12-17T23:22:40.160Z,5.60
2018-12-17T23:25:09.151Z,5.40
2018-12-17T23:27:38.585Z,5.50
2018-12-17T23:30:08.658Z,5.30
2018-12-17T23:32:37.594Z,5.30
2018-12-17T23:35:07.679Z,5.50
2018-12-17T23:37:36.601Z,5.70
2018-12-17T23:40:05.986Z,5.70
2018-12-17T23:42:34.925Z,5.70
2018-12-17T23:45:03.879Z,5.70
2018-12-17T23:47:32.799Z,5.70
2018-12-17T23:50:01.802Z,5.60
2018-12-17T23:52:30.851Z,5.60
2018-12-17T23:55:00.574Z,5.50
2018-12-17T23:57:29.554Z,5.60
2018-12-17T23:59:58.505Z,5.70
